createdAt,value
2023-07-28T00:01:21.203Z,5.90
2023-07-28T00:03:52.947Z,5.70
2023-07-28T00:06:24.980Z,5.63
2023-07-28T00:08:56.697Z,6.17
2023-07-28T00:11:28.479Z,5.20
2023-07-28T00:14:00.262Z,6.10
2023-07-28T00:16:32.080Z,4.80
2023-07-28T00:19:05.123Z,4.90
2023-07-28T00:21:36.897Z,4.80
2023-07-28T00:24:08.656Z,5.93
2023-07-28T00:26:40.398Z,5.30
2023-07-28T00:29:12.235Z,6.00
2023-07-28T00:31:44.022Z,6.17
2023-07-28T00:34:15.772Z,5.93
2023-07-28T00:36:47.623Z,5.50
2023-07-28T00:39:19.518Z,5.50
2023-07-28T00:41:51.270Z,5.20
2023-07-28T00:44:23.026Z,5.43
2023-07-28T00:46:54.834Z,5.00
2023-07-28T00:49:26.575Z,5.80
2023-07-28T00:51:58.720Z,5.90
2023-07-28T00:54:31.100Z,6.27
2023-07-28T00:57:04.087Z,6.30
2023-07-28T00:59:35.998Z,5.53
2023-07-28T01:02:08.088Z,8.00
2023-07-28T01:04:42.166Z,5.70
2023-07-28T01:07:18.874Z,5.60
2023-07-28T01:10:06.775Z,5.80
2023-07-28T01:12:38.500Z,5.43
2023-07-28T01:15:10.674Z,6.20
2023-07-28T01:17:43.419Z,6.67
2023-07-28T01:20:15.276Z,5.37
2023-07-28T01:23:14.887Z,5.93
2023-07-28T01:26:07.585Z,5.53
2023-07-28T01:28:42.706Z,5.37
2023-07-28T01:31:14.596Z,8.10
2023-07-28T01:33:46.581Z,5.70
2023-07-28T01:36:18.317Z,5.57
2023-07-28T01:38:50.091Z,6.00
2023-07-28T01:41:21.888Z,5.03
2023-07-28T01:43:56.781Z,5.50
2023-07-28T01:46:28.723Z,5.23
2023-07-28T01:49:00.452Z,5.93
2023-07-28T01:51:32.165Z,5.03
2023-07-28T01:54:03.920Z,6.87
2023-07-28T01:56:35.833Z,5.83
2023-07-28T01:59:07.727Z,5.33
2023-07-28T02:01:40.758Z,7.80
2023-07-28T02:04:12.522Z,5.33
2023-07-28T02:06:44.246Z,5.50
2023-07-28T02:09:15.950Z,6.57
2023-07-28T02:11:47.599Z,5.23
2023-07-28T02:14:19.722Z,5.17
2023-07-28T02:16:51.729Z,5.80
2023-07-28T02:19:23.470Z,6.27
2023-07-28T02:21:55.165Z,5.27
2023-07-28T02:24:26.822Z,5.50
2023-07-28T02:26:58.513Z,5.53
2023-07-28T02:29:30.168Z,5.20
2023-07-28T02:32:01.807Z,5.87
2023-07-28T02:34:33.464Z,5.00
2023-07-28T02:37:05.282Z,5.10
2023-07-28T02:39:36.921Z,5.37
2023-07-28T02:42:08.858Z,10.53
2023-07-28T02:44:40.737Z,4.97
2023-07-28T02:47:12.420Z,4.53
2023-07-28T02:49:44.453Z,5.23
2023-07-28T02:52:16.213Z,4.57
2023-07-28T02:54:48.569Z,5.37
2023-07-28T02:57:20.208Z,4.53
2023-07-28T02:59:51.845Z,4.90
2023-07-28T03:02:23.552Z,5.37
2023-07-28T03:04:55.308Z,5.80
2023-07-28T03:07:26.964Z,5.20
2023-07-28T03:09:59.340Z,4.27
2023-07-28T03:12:31.019Z,4.63
2023-07-28T03:15:02.726Z,4.90
2023-07-28T03:17:34.416Z,4.30
2023-07-28T03:20:07.293Z,4.87
2023-07-28T03:22:39.019Z,5.17
2023-07-28T03:25:10.761Z,4.13
2023-07-28T03:27:42.439Z,5.50
2023-07-28T03:30:14.636Z,4.93
2023-07-28T03:32:46.571Z,4.30
2023-07-28T03:35:18.288Z,5.00
2023-07-28T03:37:50.107Z,5.13
2023-07-28T03:40:21.853Z,5.83
2023-07-28T03:42:54.162Z,4.80
2023-07-28T03:45:26.028Z,4.57
2023-07-28T03:47:57.738Z,4.47
2023-07-28T03:50:29.419Z,4.57
2023-07-28T03:53:01.064Z,4.50
2023-07-28T03:55:32.714Z,4.03
2023-07-28T03:58:04.449Z,4.70
2023-07-28T04:00:36.096Z,4.30
2023-07-28T04:03:07.745Z,4.63
2023-07-28T04:05:39.401Z,4.80
2023-07-28T04:08:11.068Z,4.50
2023-07-28T04:10:42.865Z,4.73
2023-07-28T04:13:14.521Z,4.43
2023-07-28T04:15:46.217Z,4.17
2023-07-28T04:18:19.080Z,4.33
2023-07-28T04:20:50.719Z,5.83
2023-07-28T04:23:22.377Z,4.50
2023-07-28T04:25:54.104Z,5.00
2023-07-28T04:28:25.990Z,4.70
2023-07-28T04:30:57.808Z,4.93
2023-07-28T04:33:29.593Z,5.03
2023-07-28T04:36:03.866Z,4.63
2023-07-28T04:38:35.625Z,5.00
2023-07-28T04:41:07.305Z,5.00
2023-07-28T04:43:38.998Z,5.10
2023-07-28T04:46:10.806Z,5.33
2023-07-28T04:48:42.483Z,4.97
2023-07-28T04:51:14.185Z,4.73
2023-07-28T04:53:45.843Z,4.83
2023-07-28T04:56:17.507Z,4.40
2023-07-28T04:58:49.199Z,4.47
2023-07-28T05:01:20.956Z,5.90
2023-07-28T05:03:52.740Z,5.97
2023-07-28T05:06:24.514Z,5.37
2023-07-28T05:08:56.201Z,5.70
2023-07-28T05:11:27.853Z,6.43
2023-07-28T05:13:59.563Z,4.97
2023-07-28T05:16:31.328Z,4.90
2023-07-28T05:19:04.431Z,5.23
2023-07-28T05:21:36.240Z,4.70
2023-07-28T05:24:08.092Z,5.50
2023-07-28T05:26:39.739Z,5.50
2023-07-28T05:29:11.424Z,5.53
2023-07-28T05:31:43.534Z,6.13
2023-07-28T05:34:15.224Z,5.20
2023-07-28T05:36:46.930Z,6.13
2023-07-28T05:39:18.661Z,5.70
2023-07-28T05:41:50.322Z,6.00
2023-07-28T05:44:21.985Z,5.90
2023-07-28T05:46:53.826Z,5.70
2023-07-28T05:49:25.485Z,6.20
2023-07-28T05:51:57.493Z,6.00
2023-07-28T05:54:29.330Z,5.03
2023-07-28T05:57:00.986Z,6.40
2023-07-28T05:59:32.766Z,5.60
2023-07-28T06:02:04.694Z,6.40
2023-07-28T06:04:36.333Z,6.50
2023-07-28T06:07:08.253Z,8.37
2023-07-28T06:09:40.047Z,6.53
2023-07-28T06:12:11.711Z,6.23
2023-07-28T06:14:43.432Z,6.60
2023-07-28T06:17:15.133Z,9.60
2023-07-28T06:19:46.776Z,6.70
2023-07-28T06:22:18.480Z,6.93
2023-07-28T06:24:50.187Z,5.80
2023-07-28T06:27:21.915Z,7.17
2023-07-28T06:29:53.596Z,6.53
2023-07-28T06:32:25.473Z,7.03
2023-07-28T06:34:58.556Z,7.30
2023-07-28T06:37:30.235Z,7.27
2023-07-28T06:40:01.950Z,6.40
2023-07-28T06:42:35.289Z,8.57
2023-07-28T06:45:07.453Z,7.20
2023-07-28T06:47:39.458Z,7.03
2023-07-28T06:50:12.819Z,7.60
2023-07-28T06:52:44.484Z,6.70
2023-07-28T06:55:17.394Z,7.97
2023-07-28T06:57:50.266Z,6.20
2023-07-28T07:00:22.118Z,7.27
2023-07-28T07:02:53.803Z,6.80
2023-07-28T07:05:25.497Z,6.83
2023-07-28T07:07:58.847Z,5.70
2023-07-28T07:10:31.570Z,6.30
2023-07-28T07:13:03.493Z,6.83
2023-07-28T07:15:36.683Z,5.47
2023-07-28T07:18:08.741Z,5.73
2023-07-28T07:20:40.437Z,4.93
2023-07-28T07:23:12.689Z,5.73
2023-07-28T07:25:44.337Z,6.83
2023-07-28T07:28:16.047Z,6.10
2023-07-28T07:30:47.811Z,5.90
2023-07-28T07:33:20.065Z,4.90
2023-07-28T07:35:51.728Z,5.73
2023-07-28T07:38:23.534Z,6.10
2023-07-28T07:40:55.190Z,5.67
2023-07-28T07:43:26.854Z,5.60
2023-07-28T07:45:58.587Z,5.80
2023-07-28T07:48:30.261Z,6.17
2023-07-28T07:51:01.906Z,5.05
2023-07-28T07:53:33.742Z,5.73
2023-07-28T07:56:06.214Z,4.90
2023-07-28T07:58:38.087Z,6.13
2023-07-28T08:01:10.216Z,5.10
2023-07-28T08:03:41.893Z,5.13
2023-07-28T08:06:13.628Z,5.60
2023-07-28T08:08:46.129Z,7.00
2023-07-28T08:11:17.907Z,4.07
2023-07-28T08:13:49.731Z,3.90
2023-07-28T08:16:21.440Z,4.33
2023-07-28T08:18:53.276Z,3.80
2023-07-28T08:21:25.167Z,4.63
2023-07-28T08:23:56.802Z,3.80
2023-07-28T08:26:28.469Z,3.63
2023-07-28T08:29:00.201Z,5.23
2023-07-28T08:31:32.081Z,4.27
2023-07-28T08:34:04.034Z,4.13
2023-07-28T08:36:35.818Z,4.23
2023-07-28T08:39:07.551Z,4.15
2023-07-28T08:41:39.258Z,5.00
2023-07-28T08:44:10.979Z,3.37
2023-07-28T08:46:42.730Z,4.07
2023-07-28T08:49:14.438Z,4.23
2023-07-28T08:51:51.583Z,3.83
2023-07-28T08:54:23.497Z,4.57
2023-07-28T08:56:55.159Z,4.00
2023-07-28T08:59:28.438Z,4.40
2023-07-28T09:02:00.457Z,4.17
2023-07-28T09:04:32.167Z,2.90
2023-07-28T09:07:06.510Z,4.10
2023-07-28T09:09:38.969Z,3.77
2023-07-28T09:12:10.860Z,3.30
2023-07-28T09:14:43.384Z,4.00
2023-07-28T09:17:15.800Z,3.90
2023-07-28T09:19:52.768Z,3.70
2023-07-28T09:22:24.807Z,3.40
2023-07-28T09:24:56.551Z,3.53
2023-07-28T09:27:30.154Z,3.47
2023-07-28T09:30:01.864Z,3.63
2023-07-28T09:32:34.978Z,3.70
2023-07-28T09:35:10.545Z,3.07
2023-07-28T09:37:45.699Z,4.63
2023-07-28T09:40:23.042Z,3.93
2023-07-28T09:42:56.471Z,2.60
2023-07-28T09:45:37.224Z,2.85
2023-07-28T09:48:12.976Z,4.53
2023-07-28T09:50:45.660Z,3.30
2023-07-28T09:53:18.569Z,2.83
2023-07-28T09:55:52.085Z,5.33
2023-07-28T09:58:25.403Z,2.30
2023-07-28T10:00:58.226Z,3.77
2023-07-28T10:03:30.489Z,2.63
2023-07-28T10:06:02.466Z,3.07
2023-07-28T10:08:34.184Z,3.27
2023-07-28T10:11:06.116Z,2.80
2023-07-28T10:13:43.355Z,5.10
2023-07-28T10:16:16.877Z,2.60
2023-07-28T10:18:55.908Z,2.90
2023-07-28T10:21:30.696Z,3.00
2023-07-28T10:24:05.181Z,3.10
2023-07-28T10:26:39.084Z,3.10
2023-07-28T10:29:16.926Z,2.90
2023-07-28T10:31:59.058Z,3.73
2023-07-28T10:34:30.793Z,3.87
2023-07-28T10:37:02.598Z,3.63
2023-07-28T10:39:37.190Z,2.83
2023-07-28T10:42:10.836Z,3.97
2023-07-28T10:44:42.598Z,2.90
2023-07-28T10:47:14.890Z,3.63
2023-07-28T10:49:48.485Z,2.90
2023-07-28T10:52:20.170Z,3.47
2023-07-28T10:54:51.849Z,4.13
2023-07-28T10:57:24.772Z,3.50
2023-07-28T11:00:01.716Z,3.33
2023-07-28T11:02:33.540Z,3.00
2023-07-28T11:05:12.508Z,3.07
2023-07-28T11:07:45.077Z,4.57
2023-07-28T11:10:17.710Z,3.03
2023-07-28T11:12:51.737Z,4.10
2023-07-28T11:15:23.799Z,3.03
2023-07-28T11:17:56.127Z,3.53
2023-07-28T11:20:29.858Z,3.08
2023-07-28T11:23:05.390Z,3.47
2023-07-28T11:25:38.311Z,3.30
2023-07-28T11:28:11.598Z,4.87
2023-07-28T11:30:45.102Z,3.23
2023-07-28T11:33:16.872Z,3.90
2023-07-28T11:35:48.747Z,3.70
2023-07-28T11:38:21.316Z,4.67
2023-07-28T11:40:53.191Z,3.70
2023-07-28T11:43:25.448Z,4.70
2023-07-28T11:45:57.215Z,3.90
2023-07-28T11:48:32.237Z,5.37
2023-07-28T11:51:04.228Z,5.17
2023-07-28T11:53:36.032Z,4.50
2023-07-28T11:56:07.964Z,4.77
2023-07-28T11:58:39.688Z,4.60
2023-07-28T12:01:11.508Z,4.57
2023-07-28T12:03:43.363Z,4.77
2023-07-28T12:09:10.342Z,4.43
2023-07-28T12:20:15.743Z,4.30
2023-07-28T12:22:49.332Z,4.63
2023-07-28T12:25:21.045Z,4.20
2023-07-28T12:27:53.226Z,5.00
2023-07-28T12:30:25.159Z,4.50
2023-07-28T12:48:28.972Z,4.63
2023-07-28T12:51:04.401Z,4.03
2023-07-28T12:53:36.316Z,3.93
2023-07-28T12:56:07.994Z,5.50
2023-07-28T13:01:14.892Z,4.50
2023-07-28T13:03:46.668Z,4.43
2023-07-28T13:06:18.512Z,4.37
2023-07-28T13:11:25.202Z,5.07
2023-07-28T13:13:57.242Z,4.90
2023-07-28T13:16:28.962Z,4.97
2023-07-28T13:19:00.961Z,4.73
2023-07-28T13:21:34.350Z,5.57
2023-07-28T13:24:06.400Z,4.43
2023-07-28T13:26:38.125Z,5.53
2023-07-28T13:29:09.806Z,5.23
2023-07-28T13:31:41.521Z,5.60
2023-07-28T13:34:13.285Z,5.10
2023-07-28T13:36:44.948Z,5.97
2023-07-28T13:39:16.658Z,8.47
2023-07-28T13:41:48.380Z,5.33
2023-07-28T13:44:20.072Z,5.83
2023-07-28T13:46:51.743Z,5.93
2023-07-28T13:49:23.393Z,6.97
2023-07-28T13:54:30.462Z,6.90
2023-07-28T13:57:02.784Z,7.43
2023-07-28T13:59:34.469Z,7.13
2023-07-28T14:02:06.556Z,11.90
2023-07-28T14:04:38.210Z,7.30
2023-07-28T14:07:09.924Z,8.33
2023-07-28T14:09:41.660Z,10.80
2023-07-28T14:12:13.368Z,6.90
2023-07-28T14:14:45.095Z,8.93
2023-07-28T14:17:17.133Z,6.47
2023-07-28T14:19:49.124Z,6.50
2023-07-28T14:22:20.867Z,6.97
2023-07-28T14:24:52.694Z,7.37
2023-07-28T14:27:24.536Z,6.43
2023-07-28T14:29:56.207Z,7.80
2023-07-28T14:32:28.364Z,6.70
2023-07-28T14:35:00.028Z,6.75
2023-07-28T14:37:31.675Z,6.80
2023-07-28T14:40:03.481Z,5.63
2023-07-28T14:42:35.157Z,6.80
2023-07-28T14:45:07.732Z,6.87
2023-07-28T14:47:39.400Z,6.23
2023-07-28T14:50:11.250Z,6.03
2023-07-28T14:52:43.108Z,6.73
2023-07-28T14:55:16.537Z,6.47
2023-07-28T14:57:48.398Z,5.90
2023-07-28T15:00:20.099Z,5.70
2023-07-28T15:02:51.841Z,8.00
2023-07-28T15:05:23.511Z,5.70
2023-07-28T15:07:55.271Z,5.40
2023-07-28T15:10:26.934Z,6.27
2023-07-28T15:12:58.627Z,6.87
2023-07-28T15:15:30.387Z,6.93
2023-07-28T15:18:02.089Z,4.77
2023-07-28T15:20:35.389Z,5.43
2023-07-28T15:23:07.189Z,5.80
2023-07-28T15:25:43.258Z,5.27
2023-07-28T15:28:16.029Z,5.43
2023-07-28T15:30:50.218Z,5.53
2023-07-28T15:33:24.483Z,5.77
2023-07-28T15:35:56.694Z,4.67
2023-07-28T15:38:28.379Z,5.32
2023-07-28T15:41:00.097Z,5.57
2023-07-28T15:43:31.821Z,5.43
2023-07-28T15:46:05.738Z,4.93
2023-07-28T15:48:37.838Z,5.53
2023-07-28T15:51:10.460Z,5.73
2023-07-28T15:53:42.162Z,5.30
2023-07-28T15:56:13.821Z,4.87
2023-07-28T15:58:45.477Z,5.53
2023-07-28T16:01:17.169Z,5.83
2023-07-28T16:03:48.824Z,5.40
2023-07-28T16:06:20.585Z,6.47
2023-07-28T16:08:56.188Z,6.50
2023-07-28T16:11:36.356Z,7.13
2023-07-28T16:14:08.219Z,5.80
2023-07-28T16:16:40.844Z,6.10
2023-07-28T16:19:12.603Z,5.63
2023-07-28T16:21:44.321Z,5.57
2023-07-28T16:24:16.215Z,6.43
2023-07-28T16:26:47.872Z,5.70
2023-07-28T16:29:19.762Z,5.47
2023-07-28T16:31:51.468Z,4.90
2023-07-28T16:34:23.386Z,6.30
2023-07-28T16:36:55.055Z,6.10
2023-07-28T16:39:26.968Z,5.50
2023-07-28T16:41:58.659Z,6.27
2023-07-28T16:44:30.486Z,6.13
2023-07-28T16:47:03.267Z,6.10
2023-07-28T16:49:35.056Z,5.70
2023-07-28T16:52:07.090Z,6.23
2023-07-28T16:54:38.787Z,5.10
2023-07-28T16:57:11.690Z,5.73
2023-07-28T16:59:43.518Z,5.97
2023-07-28T17:02:15.187Z,6.57
2023-07-28T17:04:46.917Z,6.30
2023-07-28T17:07:18.655Z,5.83
2023-07-28T17:09:50.567Z,6.83
2023-07-28T17:12:22.203Z,6.90
2023-07-28T17:14:53.964Z,6.68
2023-07-28T17:17:25.620Z,7.90
2023-07-28T17:19:59.103Z,6.67
2023-07-28T17:22:31.761Z,7.23
2023-07-28T17:25:04.091Z,6.00
2023-07-28T17:27:35.780Z,6.90
2023-07-28T17:30:08.044Z,5.90
2023-07-28T17:32:39.933Z,6.07
2023-07-28T17:35:11.788Z,5.20
2023-07-28T17:37:43.496Z,5.93
2023-07-28T17:40:15.175Z,5.77
2023-07-28T17:42:46.985Z,5.70
2023-07-28T17:45:18.717Z,5.77
2023-07-28T17:47:50.466Z,6.40
2023-07-28T17:50:22.271Z,5.50
2023-07-28T17:52:53.911Z,6.17
2023-07-28T17:55:26.203Z,5.17
2023-07-28T17:57:57.923Z,4.93
2023-07-28T18:00:29.687Z,5.30
2023-07-28T18:03:01.545Z,5.18
2023-07-28T18:05:33.337Z,4.97
2023-07-28T18:08:09.740Z,4.70
2023-07-28T18:10:42.529Z,6.20
2023-07-28T18:13:17.221Z,4.40
2023-07-28T18:15:49.132Z,5.37
2023-07-28T18:18:20.902Z,5.23
2023-07-28T18:20:52.791Z,5.40
2023-07-28T18:23:24.551Z,5.10
2023-07-28T18:25:56.359Z,5.40
2023-07-28T18:28:29.541Z,4.93
2023-07-28T18:31:01.403Z,5.30
2023-07-28T18:33:33.050Z,3.80
2023-07-28T18:36:05.210Z,3.07
2023-07-28T18:38:36.868Z,3.63
2023-07-28T18:41:09.448Z,3.50
2023-07-28T18:43:41.151Z,3.30
2023-07-28T18:46:12.832Z,3.20
2023-07-28T18:48:44.507Z,3.70
2023-07-28T18:51:16.299Z,3.77
2023-07-28T18:53:47.984Z,3.70
2023-07-28T18:56:19.673Z,2.97
2023-07-28T18:58:51.371Z,2.60
2023-07-28T19:01:23.065Z,3.30
2023-07-28T19:03:54.848Z,3.00
2023-07-28T19:06:26.635Z,3.90
2023-07-28T19:08:58.339Z,2.70
2023-07-28T19:11:30.119Z,3.13
2023-07-28T19:14:01.928Z,3.50
2023-07-28T19:16:33.679Z,4.30
2023-07-28T19:19:05.472Z,2.77
2023-07-28T19:21:37.421Z,3.23
2023-07-28T19:24:09.324Z,2.90
2023-07-28T19:26:41.005Z,3.50
2023-07-28T19:29:13.378Z,2.80
2023-07-28T19:31:45.827Z,2.80
2023-07-28T19:34:17.511Z,2.30
2023-07-28T19:36:49.430Z,2.70
2023-07-28T19:39:21.192Z,3.03
2023-07-28T19:41:52.845Z,2.77
2023-07-28T19:44:32.325Z,2.77
2023-07-28T19:47:08.297Z,2.90
2023-07-28T19:49:40.688Z,3.67
2023-07-28T19:52:13.264Z,3.17
2023-07-28T19:54:46.198Z,2.53
2023-07-28T19:57:17.896Z,3.60
2023-07-28T19:59:49.537Z,2.90
2023-07-28T20:02:21.269Z,2.33
2023-07-28T20:04:53.083Z,2.03
2023-07-28T20:07:24.776Z,1.60
2023-07-28T20:09:56.444Z,2.27
2023-07-28T20:12:28.259Z,2.70
2023-07-28T20:15:00.134Z,1.97
2023-07-28T20:17:32.272Z,2.50
2023-07-28T20:20:04.849Z,3.73
2023-07-28T20:22:36.558Z,2.40
2023-07-28T20:25:09.113Z,3.00
2023-07-28T20:27:45.994Z,2.50
2023-07-28T20:30:18.930Z,2.63
2023-07-28T20:32:50.906Z,3.10
2023-07-28T20:35:22.688Z,3.53
2023-07-28T20:37:54.932Z,2.77
2023-07-28T20:40:26.811Z,3.20
2023-07-28T20:42:58.492Z,2.00
2023-07-28T20:45:30.145Z,2.67
2023-07-28T20:48:01.916Z,2.20
2023-07-28T20:50:33.756Z,3.37
2023-07-28T20:53:05.468Z,2.43
2023-07-28T20:55:37.239Z,1.60
2023-07-28T20:58:09.109Z,1.63
2023-07-28T21:00:40.990Z,2.35
2023-07-28T21:03:12.963Z,3.77
2023-07-28T21:05:44.832Z,5.20
2023-07-28T21:08:16.543Z,3.17
2023-07-28T21:10:48.243Z,2.70
2023-07-28T21:13:20.026Z,2.80
2023-07-28T21:15:52.081Z,2.60
2023-07-28T21:18:23.934Z,4.30
2023-07-28T21:20:55.737Z,3.23
2023-07-28T21:23:31.315Z,3.70
2023-07-28T21:26:07.932Z,4.67
2023-07-28T21:28:40.113Z,3.83
2023-07-28T21:31:11.885Z,3.70
2023-07-28T21:33:43.642Z,3.97
2023-07-28T21:36:15.341Z,4.23
2023-07-28T21:38:46.996Z,5.60
2023-07-28T21:41:19.380Z,4.97
2023-07-28T21:43:51.843Z,7.13
2023-07-28T21:46:23.877Z,3.70
2023-07-28T21:48:55.996Z,5.13
2023-07-28T21:51:27.662Z,3.80
2023-07-28T21:53:59.348Z,3.23
2023-07-28T21:56:31.305Z,4.10
2023-07-28T21:59:03.003Z,6.03
2023-07-28T22:01:34.723Z,3.73
2023-07-28T22:04:07.016Z,2.80
2023-07-28T22:06:39.073Z,2.78
2023-07-28T22:09:10.751Z,5.37
2023-07-28T22:11:42.484Z,3.00
2023-07-28T22:14:14.120Z,2.57
2023-07-28T22:16:45.878Z,3.40
2023-07-28T22:19:18.026Z,7.00
2023-07-28T22:21:49.708Z,2.60
2023-07-28T22:24:21.408Z,2.90
2023-07-28T22:26:53.136Z,2.43
2023-07-28T22:29:24.815Z,2.67
2023-07-28T22:31:56.529Z,3.00
2023-07-28T22:34:28.304Z,3.13
2023-07-28T22:37:00.001Z,3.40
2023-07-28T22:39:31.766Z,3.20
2023-07-28T22:42:03.609Z,2.93
2023-07-28T22:44:35.328Z,3.30
2023-07-28T22:47:07.121Z,3.13
2023-07-28T22:49:38.867Z,4.47
2023-07-28T22:52:10.574Z,3.80
2023-07-28T22:54:42.327Z,3.37
2023-07-28T22:57:14.019Z,2.73
2023-07-28T22:59:45.958Z,2.60
2023-07-28T23:02:17.716Z,2.63
2023-07-28T23:04:49.486Z,7.23
2023-07-28T23:07:21.172Z,3.03
2023-07-28T23:09:53.054Z,4.30
2023-07-28T23:12:24.859Z,3.00
2023-07-28T23:14:56.501Z,3.70
2023-07-28T23:17:28.225Z,2.50
2023-07-28T23:20:00.163Z,5.90
2023-07-28T23:22:32.607Z,7.17
2023-07-28T23:25:05.132Z,3.43
2023-07-28T23:27:37.878Z,3.67
2023-07-28T23:30:10.371Z,3.77
2023-07-28T23:32:42.215Z,2.87
2023-07-28T23:35:14.070Z,4.03
2023-07-28T23:37:45.821Z,2.97
2023-07-28T23:40:17.509Z,5.23
2023-07-28T23:42:49.824Z,2.78
2023-07-28T23:45:23.243Z,3.20
2023-07-28T23:47:54.960Z,3.00
2023-07-28T23:50:26.652Z,3.03
2023-07-28T23:52:58.327Z,3.30
2023-07-28T23:55:29.951Z,2.83
2023-07-28T23:58:01.615Z,2.85
